createdAt,value
2022-10-18T00:03:37.575Z,99699.22
2022-10-18T00:08:42.681Z,99715.28
2022-10-18T00:13:47.537Z,99715.34
2022-10-18T00:18:54.984Z,99710.34
2022-10-18T00:23:59.853Z,99720.75
2022-10-18T00:29:07.291Z,99719.88
2022-10-18T00:34:18.119Z,99719.09
2022-10-18T00:39:24.736Z,99721.69
2022-10-18T00:44:59.770Z,99719.97
2022-10-18T00:50:09.866Z,99703.72
2022-10-18T00:55:14.893Z,99702.06
2022-10-18T01:00:21.161Z,99697.91
2022-10-18T01:05:29.337Z,99698.69
2022-10-18T01:10:41.651Z,99706.34
2022-10-18T01:15:54.659Z,99703.25
2022-10-18T01:21:26.216Z,99709.22
2022-10-18T01:26:48.530Z,99705.94
2022-10-18T01:32:02.307Z,99711.50
2022-10-18T01:37:12.474Z,99710.50
2022-10-18T01:42:22.571Z,99706.34
2022-10-18T01:47:31.081Z,99705.75
2022-10-18T01:52:36.219Z,99705.66
2022-10-18T01:57:45.492Z,99705.66
2022-10-18T02:02:59.147Z,99709.72
2022-10-18T02:08:22.925Z,99715.16
2022-10-18T02:13:32.851Z,99706.94
2022-10-18T02:18:44.088Z,99706.63
2022-10-18T02:23:49.959Z,99705.63
2022-10-18T02:28:55.059Z,99711.78
2022-10-18T02:34:07.296Z,99711.78
2022-10-18T02:39:17.142Z,99704.06
2022-10-18T02:44:21.823Z,99710.38
2022-10-18T02:49:29.361Z,99711.47
2022-10-18T02:54:34.185Z,99711.78
2022-10-18T02:59:38.926Z,99713.31
2022-10-18T03:04:46.354Z,99704.78
2022-10-18T03:09:51.351Z,99713.53
2022-10-18T03:14:56.287Z,99727.19
2022-10-18T03:20:03.693Z,99725.41
2022-10-18T03:25:08.752Z,99719.69
2022-10-18T03:30:14.507Z,99728.56
2022-10-18T03:35:21.841Z,99724.00
2022-10-18T03:40:26.637Z,99726.78
2022-10-18T03:45:31.796Z,99724.53
2022-10-18T03:50:39.222Z,99722.59
2022-10-18T03:55:44.490Z,99716.28
2022-10-18T04:00:52.329Z,99714.69
2022-10-18T04:06:00.931Z,99717.44
2022-10-18T04:11:10.111Z,99714.72
2022-10-18T04:16:14.893Z,99711.00
2022-10-18T04:21:22.420Z,99720.91
2022-10-18T04:26:27.219Z,99718.69
2022-10-18T04:31:31.998Z,99723.38
2022-10-18T04:36:39.735Z,99712.34
2022-10-18T04:41:44.474Z,99712.75
2022-10-18T04:46:49.278Z,99714.06
2022-10-18T04:51:56.675Z,99716.63
2022-10-18T04:57:01.669Z,99714.84
2022-10-18T05:02:07.107Z,99721.59
2022-10-18T05:07:14.729Z,99716.94
2022-10-18T05:12:19.647Z,99713.16
2022-10-18T05:17:24.726Z,99708.81
2022-10-18T05:22:32.351Z,99716.16
2022-10-18T05:27:37.654Z,99710.50
2022-10-18T05:32:42.461Z,99713.00
2022-10-18T05:37:49.880Z,99706.13
2022-10-18T05:42:55.074Z,99703.69
2022-10-18T05:48:01.586Z,99709.22
2022-10-18T05:53:12.498Z,99710.69
2022-10-18T05:58:30.076Z,99706.75
2022-10-18T06:03:36.199Z,99696.25
2022-10-18T06:08:45.274Z,99688.13
2022-10-18T06:13:52.351Z,99680.09
2022-10-18T06:19:00.020Z,99669.69
2022-10-18T06:24:09.770Z,99655.81
2022-10-18T06:29:14.869Z,99665.34
2022-10-18T06:34:19.718Z,99665.13
2022-10-18T06:39:27.345Z,99661.63
2022-10-18T06:44:32.159Z,99662.44
2022-10-18T06:49:38.931Z,99644.81
2022-10-18T06:54:46.265Z,99683.28
2022-10-18T06:59:58.659Z,99676.00
2022-10-18T07:05:03.766Z,99667.94
2022-10-18T07:10:13.117Z,99668.63
2022-10-18T07:15:18.265Z,99677.78
2022-10-18T07:20:23.501Z,99674.78
2022-10-18T07:25:33.629Z,99667.59
2022-10-18T07:30:38.661Z,99680.13
2022-10-18T07:35:43.416Z,99674.72
2022-10-18T07:40:51.187Z,99684.22
2022-10-18T07:45:56.605Z,99684.41
2022-10-18T07:51:02.697Z,99666.38
2022-10-18T07:56:16.723Z,99675.31
2022-10-18T08:01:22.745Z,99676.88
2022-10-18T08:06:28.399Z,99670.16
2022-10-18T08:11:36.039Z,99666.38
2022-10-18T08:16:40.923Z,99661.69
2022-10-18T08:21:48.604Z,99659.69
2022-10-18T08:26:59.089Z,99663.41
2022-10-18T08:32:04.319Z,99666.19
2022-10-18T08:37:09.152Z,99634.47
2022-10-18T08:42:34.503Z,99639.34
2022-10-18T08:47:42.619Z,99628.16
2022-10-18T08:52:53.735Z,99610.41
2022-10-18T08:58:02.381Z,99592.72
2022-10-18T09:03:22.229Z,99594.53
2022-10-18T09:08:55.661Z,99601.91
2022-10-18T09:14:20.469Z,99604.69
2022-10-18T09:19:42.515Z,99606.03
2022-10-18T09:24:56.149Z,99600.25
2022-10-18T09:30:12.988Z,99579.75
2022-10-18T09:35:22.761Z,99577.47
2022-10-18T09:40:32.761Z,99570.59
2022-10-18T09:45:44.497Z,99557.84
2022-10-18T09:50:55.323Z,99556.91
2022-10-18T09:56:05.292Z,99543.81
2022-10-18T10:01:16.191Z,99539.56
2022-10-18T10:06:28.175Z,99527.84
2022-10-18T10:11:38.078Z,99520.09
2022-10-18T10:16:52.948Z,99503.97
2022-10-18T10:22:02.774Z,99501.63
2022-10-18T10:27:10.027Z,99509.94
2022-10-18T10:32:19.152Z,99501.91
2022-10-18T10:37:31.299Z,99494.31
2022-10-18T10:42:39.007Z,99559.75
2022-10-18T10:47:46.645Z,99567.44
2022-10-18T10:52:51.661Z,99588.91
2022-10-18T10:57:58.074Z,99605.25
2022-10-18T11:03:30.988Z,99628.16
2022-10-18T11:08:41.800Z,99627.00
2022-10-18T11:14:07.250Z,99630.69
2022-10-18T11:19:35.585Z,99613.44
2022-10-18T11:24:40.576Z,99596.22
2022-10-18T11:29:58.193Z,99604.75
2022-10-18T11:35:24.874Z,99601.25
2022-10-18T11:40:48.138Z,99586.59
2022-10-18T11:46:01.474Z,99606.34
2022-10-18T11:51:19.141Z,99622.63
2022-10-18T11:56:31.350Z,99624.69
2022-10-18T12:01:42.292Z,99618.66
2022-10-18T12:06:53.325Z,99619.63
2022-10-18T12:12:04.789Z,99641.75
2022-10-18T12:17:41.092Z,99648.50
2022-10-18T12:22:52.834Z,99643.47
2022-10-18T12:28:05.996Z,99652.44
2022-10-18T12:33:27.677Z,99653.09
2022-10-18T12:38:38.532Z,99661.47
2022-10-18T12:43:43.456Z,99657.03
2022-10-18T12:48:53.057Z,99671.72
2022-10-18T12:54:14.751Z,99664.91
2022-10-18T12:59:53.800Z,99661.28
2022-10-18T13:05:00.809Z,99660.38
2022-10-18T13:10:41.301Z,99666.53
2022-10-18T13:15:54.739Z,99681.69
2022-10-18T13:21:11.921Z,99668.75
2022-10-18T13:26:26.177Z,99677.75
2022-10-18T13:31:42.877Z,99684.38
2022-10-18T13:36:58.182Z,99680.44
2022-10-18T13:42:35.070Z,99684.84
2022-10-18T13:47:42.780Z,99686.91
2022-10-18T13:53:28.813Z,99681.84
2022-10-18T13:58:49.202Z,99672.38
2022-10-18T14:04:42.064Z,99681.75
2022-10-18T14:09:54.895Z,99667.88
2022-10-18T14:15:08.299Z,99657.81
2022-10-18T14:20:36.914Z,99654.53
2022-10-18T14:25:50.119Z,99647.09
2022-10-18T14:30:59.455Z,99657.84
2022-10-18T14:36:14.543Z,99667.00
2022-10-18T14:41:25.477Z,99672.94
2022-10-18T14:46:31.734Z,99679.56
2022-10-18T14:51:41.906Z,99686.06
2022-10-18T14:56:47.743Z,99701.44
2022-10-18T15:01:58.765Z,99706.34
2022-10-18T15:07:08.262Z,99701.81
2022-10-18T15:12:17.675Z,99690.28
2022-10-18T15:17:27.859Z,99699.06
2022-10-18T15:22:36.433Z,99693.41
2022-10-18T15:27:45.253Z,99701.13
2022-10-18T15:32:52.740Z,99695.72
2022-10-18T15:38:03.729Z,99707.78
2022-10-18T15:43:47.307Z,99700.63
2022-10-18T15:48:52.200Z,99715.59
2022-10-18T15:53:59.733Z,99714.38
2022-10-18T15:59:07.152Z,99716.22
2022-10-18T16:04:20.172Z,99723.97
2022-10-18T16:09:29.976Z,99722.78
2022-10-18T16:14:36.444Z,99733.13
2022-10-18T16:19:41.228Z,99731.91
2022-10-18T16:24:48.756Z,99721.66
2022-10-18T16:29:53.697Z,99735.38
2022-10-18T16:34:58.563Z,99738.53
2022-10-18T16:40:21.626Z,99742.38
2022-10-18T16:45:26.654Z,99754.19
2022-10-18T16:50:34.705Z,99750.25
2022-10-18T16:55:44.896Z,99759.44
2022-10-18T17:00:50.008Z,99750.88
2022-10-18T17:05:56.580Z,99754.34
2022-10-18T17:11:04.334Z,99746.78
2022-10-18T17:16:10.323Z,99753.38
2022-10-18T17:21:15.272Z,99751.66
2022-10-18T17:26:29.272Z,99766.13
2022-10-18T17:31:35.748Z,99775.53
2022-10-18T17:36:41.861Z,99771.66
2022-10-18T17:41:49.309Z,99768.59
2022-10-18T17:46:54.683Z,99762.31
2022-10-18T17:52:03.288Z,99769.09
2022-10-18T17:57:14.459Z,99773.47
2022-10-18T18:02:19.478Z,99777.19
2022-10-18T18:07:24.547Z,99770.09
2022-10-18T18:12:32.079Z,99776.69
2022-10-18T18:17:55.955Z,99779.97
2022-10-18T18:23:01.795Z,99767.16
2022-10-18T18:28:09.229Z,99770.22
2022-10-18T18:33:14.168Z,99765.28
2022-10-18T18:38:19.167Z,99776.38
2022-10-18T18:43:30.082Z,99777.03
2022-10-18T18:48:36.596Z,99772.78
2022-10-18T18:53:42.990Z,99773.81
2022-10-18T18:58:50.640Z,99779.13
2022-10-18T19:03:57.858Z,99768.38
2022-10-18T19:09:04.892Z,99767.16
2022-10-18T19:14:12.712Z,99767.00
2022-10-18T19:19:20.153Z,99772.03
2022-10-18T19:24:26.578Z,99781.59
2022-10-18T19:29:37.092Z,99770.91
2022-10-18T19:34:45.000Z,99779.47
2022-10-18T19:39:49.958Z,99777.38
2022-10-18T19:45:00.017Z,99785.13
2022-10-18T19:50:04.853Z,99789.69
2022-10-18T19:55:10.848Z,99788.44
2022-10-18T20:00:19.803Z,99784.88
2022-10-18T20:05:24.620Z,99784.63
2022-10-18T20:10:30.348Z,99790.97
2022-10-18T20:15:38.569Z,99788.94
2022-10-18T20:20:45.821Z,99797.34
2022-10-18T20:26:01.481Z,99789.81
2022-10-18T20:31:11.200Z,99785.25
2022-10-18T20:36:18.451Z,99786.31
2022-10-18T20:41:25.105Z,99792.06
2022-10-18T20:46:34.938Z,99794.03
2022-10-18T20:51:39.792Z,99800.66
2022-10-18T20:56:44.785Z,99803.84
2022-10-18T21:01:52.293Z,99798.50
2022-10-18T21:06:57.519Z,99794.38
2022-10-18T21:12:02.362Z,99803.44
2022-10-18T21:17:09.945Z,99793.75
2022-10-18T21:22:14.847Z,99799.09
2022-10-18T21:27:19.703Z,99789.03
2022-10-18T21:32:27.292Z,99792.16
2022-10-18T21:37:32.140Z,99797.19
2022-10-18T21:42:36.973Z,99793.75
2022-10-18T21:47:44.398Z,99794.63
2022-10-18T21:52:49.254Z,99792.72
2022-10-18T21:57:54.257Z,99799.47
2022-10-18T22:03:12.465Z,99802.94
2022-10-18T22:08:19.568Z,99802.06
2022-10-18T22:13:24.351Z,99791.25
2022-10-18T22:18:32.433Z,99789.97
2022-10-18T22:23:40.238Z,99786.41
2022-10-18T22:28:46.557Z,99780.56
2022-10-18T22:33:59.147Z,99788.09
2022-10-18T22:39:08.560Z,99787.03
2022-10-18T22:44:15.010Z,99791.06
2022-10-18T22:49:22.518Z,99793.81
2022-10-18T22:54:27.651Z,99767.75
2022-10-18T22:59:32.634Z,99778.88
2022-10-18T23:04:40.346Z,99773.31
2022-10-18T23:09:45.155Z,99774.56
2022-10-18T23:14:49.911Z,99767.00
2022-10-18T23:19:57.338Z,99772.91
2022-10-18T23:25:02.188Z,99778.56
2022-10-18T23:30:07.943Z,99781.13
2022-10-18T23:35:15.964Z,99793.25
2022-10-18T23:40:20.917Z,99788.47
2022-10-18T23:45:27.209Z,99789.22
2022-10-18T23:50:34.857Z,99776.59
2022-10-18T23:55:39.845Z,99783.56
